createdAt,value
2022-12-07T00:01:18.758Z,97768.0895463467
2022-12-07T00:04:18.888Z,97767.56875324986
2022-12-07T00:07:17.348Z,97767.92673144596
2022-12-07T00:11:18.917Z,97768.72150619615
2022-12-07T00:14:18.142Z,97764.61087683424
2022-12-07T00:17:16.962Z,97759.29791486595
2022-12-07T00:21:18.472Z,97756.55484786171
2022-12-07T00:24:16.219Z,97754.66032273778
2022-12-07T00:27:16.158Z,97752.60832214578
2022-12-07T00:31:18.975Z,97742.34564216228
2022-12-07T00:34:19.183Z,97743.53021614712
2022-12-07T00:37:16.962Z,97745.36245334015
2022-12-07T00:41:18.492Z,97746.19105189148
2022-12-07T00:44:16.574Z,97743.2151661362
2022-12-07T00:47:16.596Z,97740.58341620793
2022-12-07T00:51:18.042Z,97741.45829667058
2022-12-07T00:54:16.314Z,97740.77288406246
2022-12-07T00:57:16.375Z,97733.48965554374
2022-12-07T01:01:16.473Z,97732.48955086665
2022-12-07T01:04:16.940Z,97731.36291658037
2022-12-07T01:07:16.940Z,97730.94006217347
2022-12-07T01:11:18.911Z,97728.67561891614
2022-12-07T01:14:16.595Z,97721.13641544568
2022-12-07T01:17:16.521Z,97715.9234529115
2022-12-07T01:21:19.218Z,97714.48274450544
2022-12-07T01:24:16.330Z,97715.91626111488
2022-12-07T01:27:16.473Z,97716.97410927221
2022-12-07T01:31:18.613Z,97718.60153391036
2022-12-07T01:34:16.122Z,97717.73152758667
2022-12-07T01:37:16.263Z,97719.42210007364
2022-12-07T01:41:16.464Z,97719.59357660991
2022-12-07T01:44:20.884Z,97724.24071501083
2022-12-07T01:47:16.869Z,97717.57095786039
2022-12-07T01:51:16.677Z,97715.21076234858
2022-12-07T01:54:17.503Z,97717.7370284908
2022-12-07T01:57:17.959Z,97709.95313140964
2022-12-07T02:01:15.918Z,97706.5429799171
2022-12-07T02:04:16.076Z,97707.29759023034
2022-12-07T02:07:16.592Z,97710.53836603239
2022-12-07T02:11:17.281Z,97707.75393250678
2022-12-07T02:14:16.854Z,97708.05293730139
2022-12-07T02:17:25.272Z,97701.54467616687
2022-12-07T02:21:27.152Z,97694.94275783203
2022-12-07T02:24:48.954Z,97689.81022808151
2022-12-07T02:27:34.869Z,97692.655337247
2022-12-07T02:31:20.868Z,97689.64182952495
2022-12-07T02:34:22.323Z,97689.79560105117
2022-12-07T02:37:29.176Z,97689.34473194632
2022-12-07T02:41:22.108Z,97680.60994411341
2022-12-07T02:44:20.281Z,97681.4901318701
2022-12-07T02:47:19.677Z,97679.67956602287
2022-12-07T02:51:18.241Z,97679.53050910302
2022-12-07T02:54:18.770Z,97681.25783837962
2022-12-07T02:57:29.800Z,97678.7964735059
2022-12-07T03:01:28.300Z,97677.50266273695
2022-12-07T03:04:31.249Z,97680.09359385616
2022-12-07T03:07:25.121Z,97679.52784830499
2022-12-07T03:11:23.940Z,97678.57037959436
2022-12-07T03:14:22.058Z,97678.78262571036
2022-12-07T03:17:21.768Z,97676.18222152059
2022-12-07T03:21:20.542Z,97674.17405228519
2022-12-07T03:24:20.032Z,97678.44649870432
2022-12-07T03:27:22.139Z,97687.2295793339
2022-12-07T03:31:19.615Z,97681.05544109622
2022-12-07T03:34:22.095Z,97675.42335487793
2022-12-07T03:37:24.046Z,97674.6456560348
2022-12-07T03:41:22.954Z,97673.56777801969
2022-12-07T03:44:16.477Z,97673.10608370014
2022-12-07T03:47:24.223Z,97667.53992075945
2022-12-07T03:51:25.264Z,97668.856344213
2022-12-07T03:54:19.729Z,97664.88695527858
2022-12-07T03:57:17.596Z,97654.36863292039
2022-12-07T04:01:18.931Z,97660.68586396058
2022-12-07T04:04:17.709Z,97656.41910530288
2022-12-07T04:07:17.060Z,97658.52176723296
2022-12-07T04:11:16.154Z,97658.04231913485
2022-12-07T04:14:20.111Z,97660.55973761379
2022-12-07T04:17:16.816Z,97651.82304765427
2022-12-07T04:21:16.383Z,97656.68481675256
2022-12-07T04:24:17.102Z,97656.0419786286
2022-12-07T04:27:16.656Z,97659.21105578134
2022-12-07T04:31:15.905Z,97657.80794142021
2022-12-07T04:34:16.642Z,97658.95555632544
2022-12-07T04:37:16.202Z,97661.92082987337
2022-12-07T04:41:16.644Z,97657.33660948902
2022-12-07T04:44:17.341Z,97654.7314760005
2022-12-07T04:47:17.284Z,97657.88140587142
2022-12-07T04:51:20.060Z,97658.36247869664
2022-12-07T04:54:17.512Z,97657.05529384955
2022-12-07T04:57:16.781Z,97654.50917627173
2022-12-07T05:01:17.702Z,97648.12766443015
2022-12-07T05:04:18.846Z,97647.31055253073
2022-12-07T05:07:16.858Z,97648.25055935845
2022-12-07T05:11:39.142Z,97650.89187800222
2022-12-07T05:14:18.318Z,97650.42897468548
2022-12-07T05:17:16.299Z,97650.20644639179
2022-12-07T05:21:16.674Z,97649.38891944748
2022-12-07T05:24:17.833Z,97646.08907922317
2022-12-07T05:27:16.967Z,97646.85475518383
2022-12-07T05:31:16.330Z,97650.37244018854
2022-12-07T05:34:16.776Z,97644.13068896564
2022-12-07T05:37:16.574Z,97647.87079440552
2022-12-07T05:42:13.322Z,97646.1502546023
2022-12-07T05:44:16.399Z,97647.44142557673
2022-12-07T05:47:16.764Z,97650.97411478829
2022-12-07T05:51:16.809Z,97651.4796894919
2022-12-07T05:54:16.692Z,97650.24969389019
2022-12-07T05:57:16.755Z,97650.15566125009
2022-12-07T06:01:16.444Z,97653.68762556661
2022-12-07T06:04:17.346Z,97650.76561759462
2022-12-07T06:07:17.385Z,97657.57937067733
2022-12-07T06:21:16.805Z,97639.26139403622
2022-12-07T06:24:17.794Z,97637.12889183516
2022-12-07T06:27:17.163Z,97644.79582197174
2022-12-07T06:31:16.573Z,97642.46903681393
2022-12-07T06:34:18.943Z,97645.4312096442
2022-12-07T06:37:16.611Z,97648.54349633648
2022-12-07T06:41:16.646Z,97653.23599125101
2022-12-07T06:44:16.950Z,97652.20281827926
2022-12-07T06:47:40.557Z,97648.5460278273
2022-12-07T06:51:16.871Z,97659.6966040725
2022-12-07T06:54:16.539Z,97658.16145706417
2022-12-07T06:57:16.311Z,97664.83415460023
2022-12-07T07:01:18.475Z,97665.33404421153
2022-12-07T07:04:16.753Z,97664.29961633499
2022-12-07T07:07:16.757Z,97668.50409317756
2022-12-07T07:11:16.936Z,97665.62855616452
2022-12-07T07:14:20.126Z,97666.3251285987
2022-12-07T07:17:16.922Z,97674.15360269159
2022-12-07T07:21:16.720Z,97668.53176205856
2022-12-07T07:24:16.965Z,97667.85476257943
2022-12-07T07:27:16.945Z,97669.11305179818
2022-12-07T07:31:16.462Z,97670.40607773128
2022-12-07T07:34:16.901Z,97668.8154466624
2022-12-07T07:37:21.756Z,97666.77266418045
2022-12-07T07:41:16.617Z,97667.08260493394
2022-12-07T07:44:17.086Z,97669.34539850696
2022-12-07T07:47:16.992Z,97669.62093876804
2022-12-07T07:51:16.630Z,97670.81657286451
2022-12-07T07:54:17.158Z,97670.60307553753
2022-12-07T07:57:17.545Z,97671.40954173128
2022-12-07T08:01:17.693Z,97676.59100441377
2022-12-07T08:04:17.521Z,97674.52580707427
2022-12-07T08:07:16.476Z,97675.02896253146
2022-12-07T08:11:16.062Z,97677.80951021294
2022-12-07T08:14:16.330Z,97676.95564191039
2022-12-07T08:17:16.538Z,97671.05987881302
2022-12-07T08:21:15.997Z,97665.03121150559
2022-12-07T08:24:16.462Z,97673.15288404943
2022-12-07T08:27:16.188Z,97671.15487675223
2022-12-07T08:31:18.551Z,97672.13609441406
2022-12-07T08:34:16.782Z,97676.58264135715
2022-12-07T08:37:16.611Z,97681.9091666318
2022-12-07T08:41:16.822Z,97679.87294724236
2022-12-07T08:44:16.015Z,97680.57838209829
2022-12-07T08:47:16.102Z,97678.34468959301
2022-12-07T08:51:16.470Z,97680.47679591518
2022-12-07T08:54:19.033Z,97684.94299810777
2022-12-07T08:57:16.715Z,97682.30137617725
2022-12-07T09:01:16.465Z,97680.41930343876
2022-12-07T09:04:16.910Z,97684.61595114462
2022-12-07T09:07:17.187Z,97688.5562448408
2022-12-07T09:11:16.488Z,97684.55249901471
2022-12-07T09:14:18.372Z,97688.96911695952
2022-12-07T09:17:17.005Z,97687.4487125708
2022-12-07T09:21:16.430Z,97687.97037446302
2022-12-07T09:24:16.711Z,97684.73955516472
2022-12-07T09:27:18.808Z,97681.26246675182
2022-12-07T09:31:25.486Z,97678.79839787143
2022-12-07T09:34:16.873Z,97676.60286864666
2022-12-07T09:37:16.812Z,97674.61250745947
2022-12-07T09:41:16.931Z,97671.08497318519
2022-12-07T09:44:21.919Z,97665.04739431832
2022-12-07T09:47:16.326Z,97660.67358356083
2022-12-07T09:51:23.723Z,97659.56308389502
2022-12-07T10:01:18.317Z,97646.34956964012
2022-12-07T10:04:20.223Z,97639.97533355578
2022-12-07T10:07:16.774Z,97635.39722901185
2022-12-07T10:11:17.340Z,97628.57950504418
2022-12-07T10:14:16.499Z,97625.25235312972
2022-12-07T10:17:36.839Z,97621.73211900482
2022-12-07T10:21:19.616Z,97619.2735250163
2022-12-07T10:24:17.571Z,97614.93360916658
2022-12-07T10:27:21.032Z,97610.51496429172
2022-12-07T10:31:19.205Z,97615.94163086504
2022-12-07T10:34:23.519Z,97615.02588051323
2022-12-07T10:37:18.900Z,97613.44352526311
2022-12-07T10:41:16.516Z,97612.78452201447
2022-12-07T10:44:22.980Z,97613.60672382463
2022-12-07T10:47:30.722Z,97616.70226363686
2022-12-07T10:51:27.729Z,97604.83670672844
2022-12-07T10:54:26.344Z,97601.881457481
2022-12-07T10:57:32.614Z,97597.3910747347
2022-12-07T11:01:26.858Z,97593.1546759304
2022-12-07T11:04:28.248Z,97594.39362738116
2022-12-07T11:07:29.050Z,97592.16266669543
2022-12-07T11:11:26.502Z,97587.61933667536
2022-12-07T11:14:25.525Z,97581.6114691379
2022-12-07T11:17:26.440Z,97574.38771095144
2022-12-07T11:21:24.252Z,97568.12648548532
2022-12-07T11:24:19.690Z,97571.93717499166
2022-12-07T11:27:24.245Z,97566.59395637909
2022-12-07T11:31:29.258Z,97566.91391383864
2022-12-07T11:34:24.888Z,97557.44985091552
2022-12-07T11:37:21.766Z,97550.2491484707
2022-12-07T11:41:23.574Z,97545.49606614353
2022-12-07T11:44:31.515Z,97540.77940212874
2022-12-07T11:47:25.383Z,97535.3766709087
2022-12-07T11:51:20.227Z,97531.15084403632
2022-12-07T11:54:21.367Z,97523.4900314094
2022-12-07T11:57:25.768Z,97525.21317364118
2022-12-07T12:01:35.437Z,97518.73093377397
2022-12-07T12:04:27.642Z,97513.1481508545
2022-12-07T12:11:35.692Z,97510.29591195629
2022-12-07T12:14:40.723Z,97504.14810960236
2022-12-07T12:17:47.415Z,97500.33511914113
2022-12-07T12:21:20.416Z,97499.1522932936
2022-12-07T12:24:21.937Z,97500.94343116999
2022-12-07T12:27:24.362Z,97495.49403845037
2022-12-07T12:31:33.669Z,97494.94173811856
2022-12-07T12:34:42.062Z,97494.41403696018
2022-12-07T12:37:53.748Z,97492.4293843286
2022-12-07T12:41:53.460Z,97486.44593551091
2022-12-07T12:44:40.726Z,97481.8472858493
2022-12-07T12:48:00.121Z,97482.24654227975
2022-12-07T12:51:37.775Z,97485.57617508495
2022-12-07T12:54:21.914Z,97482.15039850971
2022-12-07T12:57:26.440Z,97487.59525988142
2022-12-07T13:01:40.847Z,97487.03526796006
2022-12-07T13:04:56.145Z,97484.70954923193
2022-12-07T13:08:28.008Z,97478.91851277756
2022-12-07T13:11:20.341Z,97484.31315720567
2022-12-07T13:15:33.763Z,97485.01935326423
2022-12-07T13:17:57.874Z,97479.55423038153
2022-12-07T13:21:43.217Z,97484.68471225108
2022-12-07T13:24:18.709Z,97484.79492473566
2022-12-07T13:27:18.677Z,97489.21648313395
2022-12-07T13:31:27.760Z,97476.29831837401
2022-12-07T13:34:34.014Z,97474.12137379608
2022-12-07T13:37:26.086Z,97475.60569103035
2022-12-07T13:41:18.711Z,97479.32898540127
2022-12-07T13:44:18.445Z,97483.49455219634
2022-12-07T13:47:21.951Z,97479.13740803042
2022-12-07T13:51:20.713Z,97480.16983521979
2022-12-07T13:54:18.212Z,97478.24495764589
2022-12-07T13:57:17.854Z,97474.78380476375
2022-12-07T14:01:16.653Z,97482.90670036341
2022-12-07T14:04:19.777Z,97474.37381229883
2022-12-07T14:07:23.267Z,97476.50368549363
2022-12-07T14:11:19.360Z,97473.55046982184
2022-12-07T14:14:20.188Z,97472.26263673724
2022-12-07T14:17:19.127Z,97473.02654945297
2022-12-07T14:21:20.135Z,97474.13622584689
2022-12-07T14:24:19.149Z,97472.26840455914
2022-12-07T14:27:19.675Z,97471.65724425293
2022-12-07T14:31:25.019Z,97470.62468954657
2022-12-07T14:34:16.795Z,97472.37689547995
2022-12-07T14:37:17.021Z,97469.599465084
2022-12-07T14:42:24.234Z,97472.36820681106
2022-12-07T14:44:23.972Z,97467.3479526824
2022-12-07T14:54:20.009Z,97472.26861595268
2022-12-07T14:57:17.758Z,97476.12622331758
2022-12-07T15:01:16.798Z,97479.07622358573
2022-12-07T15:04:17.467Z,97480.80995968098
2022-12-07T15:07:21.056Z,97480.23123219938
2022-12-07T15:11:18.418Z,97487.6999781408
2022-12-07T15:14:17.116Z,97486.24372176676
2022-12-07T15:17:28.185Z,97487.15587636779
2022-12-07T15:21:16.747Z,97484.83961884814
2022-12-07T15:24:17.087Z,97487.45468517489
2022-12-07T15:27:17.039Z,97488.97116978439
2022-12-07T15:31:47.054Z,97489.6898047634
2022-12-07T15:34:17.236Z,97491.1570363339
2022-12-07T15:37:17.171Z,97487.33315628642
2022-12-07T15:41:16.557Z,97486.51410234199
2022-12-07T15:45:21.666Z,97488.9390685918
2022-12-07T15:47:16.853Z,97496.05417091203
2022-12-07T15:51:20.304Z,97498.65406734178
2022-12-07T15:54:20.738Z,97501.28009452739
2022-12-07T15:57:22.076Z,97505.83024629822
2022-12-07T16:01:19.878Z,97504.52676891915
2022-12-07T16:04:16.927Z,97502.04049648266
2022-12-07T16:07:17.831Z,97502.2591364039
2022-12-07T16:11:16.296Z,97505.41365018084
2022-12-07T16:14:16.624Z,97506.56515668952
2022-12-07T16:17:16.591Z,97509.94980652847
2022-12-07T16:21:23.341Z,97502.53789624695
2022-12-07T16:24:17.595Z,97508.21776300923
2022-12-07T16:27:17.076Z,97509.53763236964
2022-12-07T16:31:18.896Z,97503.68623712941
2022-12-07T16:34:17.147Z,97505.73178477207
2022-12-07T16:37:16.619Z,97505.50918858933
2022-12-07T16:41:18.133Z,97505.52816644704
2022-12-07T16:44:17.355Z,97508.25398341753
2022-12-07T16:47:17.438Z,97510.13887467796
2022-12-07T16:51:16.602Z,97507.851937719
2022-12-07T16:54:17.112Z,97503.70963918565
2022-12-07T17:01:18.388Z,97511.09791376509
2022-12-07T17:04:16.602Z,97505.52264999862
2022-12-07T17:07:16.595Z,97496.41224237983
2022-12-07T17:11:18.533Z,97500.1351249259
2022-12-07T17:21:16.230Z,97507.85396148755
2022-12-07T17:24:17.221Z,97505.94996442138
2022-12-07T17:27:17.701Z,97507.04219734365
2022-12-07T17:31:18.930Z,97505.39122571536
2022-12-07T17:34:17.190Z,97503.66095018612
2022-12-07T17:37:17.399Z,97501.51214605224
2022-12-07T17:42:36.831Z,97501.79794837887
2022-12-07T17:44:18.222Z,97502.9975146295
2022-12-07T17:47:18.333Z,97510.67810879904
2022-12-07T18:01:20.555Z,97520.47623671536
2022-12-07T18:04:16.549Z,97525.51659292278
2022-12-07T18:07:16.739Z,97533.20615785194
2022-12-07T18:11:16.756Z,97530.17304805182
2022-12-07T18:14:17.325Z,97534.18174185348
2022-12-07T18:17:17.160Z,97539.39896164468
2022-12-07T18:21:19.229Z,97539.60725438273
2022-12-07T18:24:17.273Z,97539.86141329787
2022-12-07T18:27:16.968Z,97539.12114019252
2022-12-07T18:31:17.585Z,97538.12677266505
2022-12-07T18:34:18.648Z,97540.67771963449
2022-12-07T18:37:17.299Z,97523.00836477375
2022-12-07T18:41:16.891Z,97522.82120686349
2022-12-07T18:44:17.368Z,97523.37346187877
2022-12-07T18:47:16.984Z,97522.31084472944
2022-12-07T18:51:17.875Z,97522.12755368004
2022-12-07T18:54:16.683Z,97526.58591065228
2022-12-07T18:57:16.654Z,97525.21348579605
2022-12-07T19:01:16.292Z,97521.54570965376
2022-12-07T19:04:17.132Z,97523.08027436378
2022-12-07T19:07:17.858Z,97522.44245225289
2022-12-07T19:11:50.033Z,97523.35340573352
2022-12-07T19:14:22.153Z,97517.42758055734
2022-12-07T19:17:16.898Z,97517.35818365887
2022-12-07T19:21:16.158Z,97511.38295298409
2022-12-07T19:24:22.778Z,97516.25166787872
2022-12-07T19:27:17.779Z,97521.12716531722
2022-12-07T19:31:16.395Z,97528.28034519944
2022-12-07T19:34:17.524Z,97526.36316963976
2022-12-07T19:37:16.920Z,97524.92226250519
2022-12-07T19:41:34.564Z,97515.15181437536
2022-12-07T19:44:18.311Z,97518.67332298195
2022-12-07T19:47:17.751Z,97520.5841319771
2022-12-07T19:51:16.588Z,97521.38089104924
2022-12-07T19:54:18.885Z,97521.96048102085
2022-12-07T19:57:18.045Z,97525.5215674099
2022-12-07T20:01:16.820Z,97525.3186686621
2022-12-07T20:04:18.748Z,97536.82937640007
2022-12-07T20:07:16.441Z,97544.22527541607
2022-12-07T20:21:16.834Z,97540.44527327779
2022-12-07T20:24:20.197Z,97543.06107400251
2022-12-07T20:27:18.087Z,97550.0835308983
2022-12-07T20:31:17.568Z,97547.67777874331
2022-12-07T20:34:17.624Z,97542.6095058154
2022-12-07T20:37:17.496Z,97544.89962430991
2022-12-07T20:51:19.688Z,97552.69650960379
2022-12-07T20:54:17.800Z,97551.16259736069
2022-12-07T20:57:16.770Z,97553.63745688615
2022-12-07T21:01:17.194Z,97549.1398011075
2022-12-07T21:04:18.522Z,97550.89772009112
2022-12-07T21:07:17.592Z,97550.44840733414
2022-12-07T21:11:18.205Z,97553.75628939379
2022-12-07T21:14:16.652Z,97559.66503125582
2022-12-07T21:17:16.827Z,97555.87417191353
2022-12-07T21:21:18.807Z,97560.61127859345
2022-12-07T21:24:16.789Z,97561.64942787237
2022-12-07T21:27:16.828Z,97565.46457081825
2022-12-07T21:31:18.500Z,97567.80599685208
2022-12-07T21:34:17.213Z,97564.94756959828
2022-12-07T21:37:17.386Z,97565.83969897372
2022-12-07T21:41:18.088Z,97569.40198388472
2022-12-07T21:44:16.231Z,97566.35285848666
2022-12-07T21:47:16.429Z,97564.9547068969
2022-12-07T21:51:16.371Z,97569.5591491415
2022-12-07T21:54:19.180Z,97568.85182376356
2022-12-07T21:57:16.556Z,97570.10497931168
2022-12-07T22:01:20.175Z,97570.06666790137
2022-12-07T22:04:19.560Z,97574.14763073539
2022-12-07T22:07:17.444Z,97574.02608837633
2022-12-07T22:11:17.092Z,97576.82899662614
2022-12-07T22:15:21.447Z,97574.46174368297
2022-12-07T22:17:16.611Z,97573.17744524997
2022-12-07T22:21:16.372Z,97576.54773315495
2022-12-07T22:24:16.982Z,97571.82008634624
2022-12-07T22:27:16.982Z,97577.43610265433
2022-12-07T22:31:18.402Z,97569.75187971577
2022-12-07T22:34:17.358Z,97570.30743870449
2022-12-07T22:37:16.798Z,97566.46305352617
2022-12-07T22:41:21.756Z,97566.09711003509
2022-12-07T22:44:16.979Z,97567.77423090948
2022-12-07T22:47:17.215Z,97574.71013756978
2022-12-07T22:51:21.917Z,97574.75100317581
2022-12-07T22:54:17.174Z,97576.6426434987
2022-12-07T22:57:16.721Z,97585.71963528311
2022-12-07T23:01:20.024Z,97579.22092100067
2022-12-07T23:04:16.806Z,97577.12703517493
2022-12-07T23:07:16.767Z,97582.02384434843
2022-12-07T23:13:32.100Z,97577.16538212844
2022-12-07T23:14:18.608Z,97576.46926581301
2022-12-07T23:17:16.550Z,97581.72542050871
2022-12-07T23:21:16.270Z,97576.361736395
2022-12-07T23:24:16.729Z,97570.11076249673
2022-12-07T23:27:16.636Z,97570.74904015739
2022-12-07T23:31:18.980Z,97575.07113476413
2022-12-07T23:34:17.006Z,97572.22903327594
2022-12-07T23:37:17.204Z,97570.32359527196
2022-12-07T23:41:19.053Z,97568.78604416928
2022-12-07T23:44:17.471Z,97566.421338243
2022-12-07T23:47:17.406Z,97569.30365001922
2022-12-07T23:51:17.326Z,97568.50340861196
2022-12-07T23:54:16.904Z,97571.02256691028
2022-12-07T23:57:16.669Z,97563.93163689997
